sensor_id;sensor_type;location;lat;lon;timestamp;P1;durP1;ratioP1;P2;durP2;ratioP2
43118;SDS011;28729;49.838;8.650;2022-07-19T00:00:10;1.80;;;1.50;;
43118;SDS011;28729;49.838;8.650;2022-07-19T00:04:14;5.28;;;1.73;;
43118;SDS011;28729;49.838;8.650;2022-07-19T00:08:16;5.47;;;1.70;;
43118;SDS011;28729;49.838;8.650;2022-07-19T00:12:18;4.57;;;1.67;;
43118;SDS011;28729;49.838;8.650;2022-07-19T00:16:20;4.40;;;1.67;;
43118;SDS011;28729;49.838;8.650;2022-07-19T00:20:23;3.55;;;1.60;;
43118;SDS011;28729;49.838;8.650;2022-07-19T00:24:25;5.70;;;1.70;;
43118;SDS011;28729;49.838;8.650;2022-07-19T00:28:27;4.50;;;1.48;;
43118;SDS011;28729;49.838;8.650;2022-07-19T00:32:28;4.65;;;1.70;;
43118;SDS011;28729;49.838;8.650;2022-07-19T00:36:30;7.05;;;1.67;;
43118;SDS011;28729;49.838;8.650;2022-07-19T00:40:32;1.97;;;1.30;;
43118;SDS011;28729;49.838;8.650;2022-07-19T00:44:33;7.10;;;2.20;;
43118;SDS011;28729;49.838;8.650;2022-07-19T00:48:35;3.50;;;1.60;;
43118;SDS011;28729;49.838;8.650;2022-07-19T00:52:37;7.25;;;1.95;;
43118;SDS011;28729;49.838;8.650;2022-07-19T00:56:40;5.47;;;1.33;;
43118;SDS011;28729;49.838;8.650;2022-07-19T01:00:42;2.03;;;1.40;;
43118;SDS011;28729;49.838;8.650;2022-07-19T01:04:44;3.47;;;1.77;;
43118;SDS011;28729;49.838;8.650;2022-07-19T01:08:46;3.93;;;1.57;;
43118;SDS011;28729;49.838;8.650;2022-07-19T01:12:47;7.80;;;1.90;;
43118;SDS011;28729;49.838;8.650;2022-07-19T01:16:49;5.13;;;1.83;;
43118;SDS011;28729;49.838;8.650;2022-07-19T01:20:51;5.15;;;1.40;;
43118;SDS011;28729;49.838;8.650;2022-07-19T01:24:53;3.63;;;1.65;;
43118;SDS011;28729;49.838;8.650;2022-07-19T01:28:55;6.05;;;1.60;;
43118;SDS011;28729;49.838;8.650;2022-07-19T01:32:56;3.67;;;1.95;;
43118;SDS011;28729;49.838;8.650;2022-07-19T01:36:58;4.95;;;1.90;;
43118;SDS011;28729;49.838;8.650;2022-07-19T01:41:00;4.40;;;2.10;;
43118;SDS011;28729;49.838;8.650;2022-07-19T01:45:02;4.45;;;2.30;;
43118;SDS011;28729;49.838;8.650;2022-07-19T01:49:04;5.40;;;2.15;;
43118;SDS011;28729;49.838;8.650;2022-07-19T01:53:06;4.40;;;2.30;;
43118;SDS011;28729;49.838;8.650;2022-07-19T01:57:07;5.15;;;1.95;;
43118;SDS011;28729;49.838;8.650;2022-07-19T02:01:09;5.30;;;1.67;;
43118;SDS011;28729;49.838;8.650;2022-07-19T02:05:11;4.40;;;1.85;;
43118;SDS011;28729;49.838;8.650;2022-07-19T02:09:13;2.87;;;1.73;;
43118;SDS011;28729;49.838;8.650;2022-07-19T02:13:14;6.72;;;1.90;;
43118;SDS011;28729;49.838;8.650;2022-07-19T02:17:16;3.85;;;1.95;;
43118;SDS011;28729;49.838;8.650;2022-07-19T02:21:18;3.03;;;1.92;;
43118;SDS011;28729;49.838;8.650;2022-07-19T02:25:19;3.63;;;1.70;;
43118;SDS011;28729;49.838;8.650;2022-07-19T02:29:22;4.45;;;2.20;;
43118;SDS011;28729;49.838;8.650;2022-07-19T02:33:23;2.80;;;1.77;;
43118;SDS011;28729;49.838;8.650;2022-07-19T02:37:25;3.95;;;1.70;;
43118;SDS011;28729;49.838;8.650;2022-07-19T02:41:27;4.28;;;1.90;;
43118;SDS011;28729;49.838;8.650;2022-07-19T02:45:28;3.38;;;1.67;;
43118;SDS011;28729;49.838;8.650;2022-07-19T02:49:30;2.58;;;1.63;;
43118;SDS011;28729;49.838;8.650;2022-07-19T02:53:32;5.40;;;1.80;;
43118;SDS011;28729;49.838;8.650;2022-07-19T02:57:33;6.03;;;1.85;;
43118;SDS011;28729;49.838;8.650;2022-07-19T03:01:35;6.45;;;1.90;;
43118;SDS011;28729;49.838;8.650;2022-07-19T03:05:37;3.95;;;1.63;;
43118;SDS011;28729;49.838;8.650;2022-07-19T03:09:39;7.50;;;2.17;;
43118;SDS011;28729;49.838;8.650;2022-07-19T03:13:40;6.15;;;1.52;;
43118;SDS011;28729;49.838;8.650;2022-07-19T03:17:42;3.85;;;2.05;;
43118;SDS011;28729;49.838;8.650;2022-07-19T03:21:44;2.78;;;1.60;;
43118;SDS011;28729;49.838;8.650;2022-07-19T03:25:45;5.28;;;2.00;;
43118;SDS011;28729;49.838;8.650;2022-07-19T03:29:47;4.40;;;1.40;;
43118;SDS011;28729;49.838;8.650;2022-07-19T03:33:48;8.73;;;2.10;;
43118;SDS011;28729;49.838;8.650;2022-07-19T03:37:50;6.35;;;1.73;;
43118;SDS011;28729;49.838;8.650;2022-07-19T03:41:52;5.18;;;1.60;;
43118;SDS011;28729;49.838;8.650;2022-07-19T03:46:00;4.35;;;1.75;;
43118;SDS011;28729;49.838;8.650;2022-07-19T03:50:02;4.53;;;1.58;;
43118;SDS011;28729;49.838;8.650;2022-07-19T03:54:04;4.00;;;1.70;;
43118;SDS011;28729;49.838;8.650;2022-07-19T03:58:06;3.97;;;1.88;;
43118;SDS011;28729;49.838;8.650;2022-07-19T04:02:08;5.03;;;1.83;;
43118;SDS011;28729;49.838;8.650;2022-07-19T04:06:10;2.92;;;1.90;;
43118;SDS011;28729;49.838;8.650;2022-07-19T04:10:12;6.38;;;1.80;;
43118;SDS011;28729;49.838;8.650;2022-07-19T04:14:14;2.87;;;1.67;;
43118;SDS011;28729;49.838;8.650;2022-07-19T04:18:16;7.57;;;1.95;;
43118;SDS011;28729;49.838;8.650;2022-07-19T04:22:18;5.88;;;1.98;;
43118;SDS011;28729;49.838;8.650;2022-07-19T04:26:19;5.20;;;1.70;;
43118;SDS011;28729;49.838;8.650;2022-07-19T04:30:21;3.38;;;1.65;;
43118;SDS011;28729;49.838;8.650;2022-07-19T04:34:23;3.70;;;1.55;;
43118;SDS011;28729;49.838;8.650;2022-07-19T04:38:24;3.30;;;2.08;;
43118;SDS011;28729;49.838;8.650;2022-07-19T04:42:26;3.40;;;1.60;;
43118;SDS011;28729;49.838;8.650;2022-07-19T04:46:28;2.80;;;1.60;;
43118;SDS011;28729;49.838;8.650;2022-07-19T04:50:29;2.47;;;1.70;;
43118;SDS011;28729;49.838;8.650;2022-07-19T04:54:31;5.03;;;1.70;;
43118;SDS011;28729;49.838;8.650;2022-07-19T04:58:33;2.95;;;1.48;;
43118;SDS011;28729;49.838;8.650;2022-07-19T05:02:35;7.07;;;1.75;;
43118;SDS011;28729;49.838;8.650;2022-07-19T05:10:39;4.70;;;1.88;;
43118;SDS011;28729;49.838;8.650;2022-07-19T05:14:41;4.78;;;1.67;;
43118;SDS011;28729;49.838;8.650;2022-07-19T05:18:42;3.80;;;1.50;;
43118;SDS011;28729;49.838;8.650;2022-07-19T05:22:44;2.50;;;1.40;;
43118;SDS011;28729;49.838;8.650;2022-07-19T05:26:49;4.65;;;1.48;;
43118;SDS011;28729;49.838;8.650;2022-07-19T05:30:50;3.00;;;1.60;;
43118;SDS011;28729;49.838;8.650;2022-07-19T05:34:52;4.05;;;2.00;;
43118;SDS011;28729;49.838;8.650;2022-07-19T05:38:54;2.45;;;1.65;;
43118;SDS011;28729;49.838;8.650;2022-07-19T05:42:56;4.10;;;1.58;;
43118;SDS011;28729;49.838;8.650;2022-07-19T05:46:58;6.55;;;2.35;;
43118;SDS011;28729;49.838;8.650;2022-07-19T05:51:00;3.85;;;2.00;;
43118;SDS011;28729;49.838;8.650;2022-07-19T05:55:02;6.25;;;2.45;;
43118;SDS011;28729;49.838;8.650;2022-07-19T05:59:04;5.90;;;2.22;;
43118;SDS011;28729;49.838;8.650;2022-07-19T06:03:05;7.20;;;2.28;;
43118;SDS011;28729;49.838;8.650;2022-07-19T06:07:07;7.07;;;1.90;;
43118;SDS011;28729;49.838;8.650;2022-07-19T06:11:09;3.95;;;2.15;;
43118;SDS011;28729;49.838;8.650;2022-07-19T06:15:11;12.10;;;2.42;;
43118;SDS011;28729;49.838;8.650;2022-07-19T06:19:13;4.10;;;2.53;;
43118;SDS011;28729;49.838;8.650;2022-07-19T06:23:15;4.95;;;2.33;;
43118;SDS011;28729;49.838;8.650;2022-07-19T06:27:20;3.95;;;2.00;;
43118;SDS011;28729;49.838;8.650;2022-07-19T06:31:22;5.20;;;2.45;;
43118;SDS011;28729;49.838;8.650;2022-07-19T06:35:24;7.43;;;2.50;;
43118;SDS011;28729;49.838;8.650;2022-07-19T06:39:26;7.07;;;2.77;;
43118;SDS011;28729;49.838;8.650;2022-07-19T06:43:27;9.35;;;2.47;;
43118;SDS011;28729;49.838;8.650;2022-07-19T06:47:29;6.22;;;2.85;;
43118;SDS011;28729;49.838;8.650;2022-07-19T06:51:30;4.88;;;2.60;;
43118;SDS011;28729;49.838;8.650;2022-07-19T06:55:32;6.57;;;2.83;;
43118;SDS011;28729;49.838;8.650;2022-07-19T06:59:45;4.85;;;2.55;;
43118;SDS011;28729;49.838;8.650;2022-07-19T07:03:46;4.68;;;2.63;;
43118;SDS011;28729;49.838;8.650;2022-07-19T07:07:48;9.60;;;2.90;;
43118;SDS011;28729;49.838;8.650;2022-07-19T07:11:52;4.97;;;2.60;;
43118;SDS011;28729;49.838;8.650;2022-07-19T07:15:54;10.17;;;3.20;;
43118;SDS011;28729;49.838;8.650;2022-07-19T07:19:56;7.00;;;2.70;;
43118;SDS011;28729;49.838;8.650;2022-07-19T07:23:58;5.55;;;2.40;;
43118;SDS011;28729;49.838;8.650;2022-07-19T07:28:00;6.20;;;3.10;;
43118;SDS011;28729;49.838;8.650;2022-07-19T07:32:02;9.57;;;2.97;;
43118;SDS011;28729;49.838;8.650;2022-07-19T07:36:04;5.93;;;2.97;;
43118;SDS011;28729;49.838;8.650;2022-07-19T07:40:06;5.43;;;2.92;;
43118;SDS011;28729;49.838;8.650;2022-07-19T07:48:10;7.97;;;2.75;;
43118;SDS011;28729;49.838;8.650;2022-07-19T07:52:11;7.33;;;3.27;;
43118;SDS011;28729;49.838;8.650;2022-07-19T07:56:13;7.60;;;2.80;;
43118;SDS011;28729;49.838;8.650;2022-07-19T08:00:17;5.85;;;2.67;;
43118;SDS011;28729;49.838;8.650;2022-07-19T08:04:20;10.02;;;2.63;;
43118;SDS011;28729;49.838;8.650;2022-07-19T08:08:22;5.97;;;2.90;;
43118;SDS011;28729;49.838;8.650;2022-07-19T08:12:25;11.05;;;3.10;;
43118;SDS011;28729;49.838;8.650;2022-07-19T08:16:27;5.78;;;2.70;;
43118;SDS011;28729;49.838;8.650;2022-07-19T08:20:29;4.25;;;2.53;;
43118;SDS011;28729;49.838;8.650;2022-07-19T08:24:31;13.55;;;3.60;;
43118;SDS011;28729;49.838;8.650;2022-07-19T08:28:32;8.52;;;3.83;;
43118;SDS011;28729;49.838;8.650;2022-07-19T08:32:34;11.98;;;3.58;;
43118;SDS011;28729;49.838;8.650;2022-07-19T08:36:36;9.82;;;3.30;;
43118;SDS011;28729;49.838;8.650;2022-07-19T08:40:38;8.82;;;3.20;;
43118;SDS011;28729;49.838;8.650;2022-07-19T08:44:43;7.53;;;3.38;;
43118;SDS011;28729;49.838;8.650;2022-07-19T08:48:46;17.67;;;11.60;;
43118;SDS011;28729;49.838;8.650;2022-07-19T08:52:48;9.82;;;3.65;;
43118;SDS011;28729;49.838;8.650;2022-07-19T08:56:50;6.13;;;2.72;;
43118;SDS011;28729;49.838;8.650;2022-07-19T09:01:11;7.03;;;3.13;;
43118;SDS011;28729;49.838;8.650;2022-07-19T09:05:12;5.88;;;2.80;;
43118;SDS011;28729;49.838;8.650;2022-07-19T09:09:27;10.75;;;3.35;;
43118;SDS011;28729;49.838;8.650;2022-07-19T09:13:31;8.10;;;3.15;;
43118;SDS011;28729;49.838;8.650;2022-07-19T09:17:33;6.38;;;2.90;;
43118;SDS011;28729;49.838;8.650;2022-07-19T09:21:49;6.70;;;3.20;;
43118;SDS011;28729;49.838;8.650;2022-07-19T09:25:54;4.20;;;3.00;;
43118;SDS011;28729;49.838;8.650;2022-07-19T09:29:57;5.15;;;3.17;;
43118;SDS011;28729;49.838;8.650;2022-07-19T09:34:01;4.63;;;2.88;;
43118;SDS011;28729;49.838;8.650;2022-07-19T09:42:41;10.07;;;3.38;;
43118;SDS011;28729;49.838;8.650;2022-07-19T09:46:44;9.75;;;3.10;;
43118;SDS011;28729;49.838;8.650;2022-07-19T09:50:48;7.53;;;3.17;;
43118;SDS011;28729;49.838;8.650;2022-07-19T09:54:50;5.90;;;3.72;;
43118;SDS011;28729;49.838;8.650;2022-07-19T09:58:52;10.30;;;3.72;;
43118;SDS011;28729;49.838;8.650;2022-07-19T10:02:56;10.52;;;3.20;;
43118;SDS011;28729;49.838;8.650;2022-07-19T10:07:02;11.43;;;3.60;;
43118;SDS011;28729;49.838;8.650;2022-07-19T10:11:04;10.07;;;4.10;;
43118;SDS011;28729;49.838;8.650;2022-07-19T10:15:06;8.50;;;3.80;;
43118;SDS011;28729;49.838;8.650;2022-07-19T10:19:12;8.10;;;3.63;;
43118;SDS011;28729;49.838;8.650;2022-07-19T10:23:36;5.57;;;2.88;;
43118;SDS011;28729;49.838;8.650;2022-07-19T10:27:47;5.57;;;3.03;;
43118;SDS011;28729;49.838;8.650;2022-07-19T10:32:08;4.78;;;3.20;;
43118;SDS011;28729;49.838;8.650;2022-07-19T10:36:53;5.25;;;3.30;;
43118;SDS011;28729;49.838;8.650;2022-07-19T10:48:56;6.57;;;2.85;;
43118;SDS011;28729;49.838;8.650;2022-07-19T10:52:59;4.32;;;3.10;;
43118;SDS011;28729;49.838;8.650;2022-07-19T10:57:01;7.70;;;3.40;;
43118;SDS011;28729;49.838;8.650;2022-07-19T11:01:14;7.53;;;3.30;;
43118;SDS011;28729;49.838;8.650;2022-07-19T11:05:24;8.02;;;3.88;;
43118;SDS011;28729;49.838;8.650;2022-07-19T11:09:38;4.50;;;3.47;;
43118;SDS011;28729;49.838;8.650;2022-07-19T11:13:45;5.65;;;3.50;;
43118;SDS011;28729;49.838;8.650;2022-07-19T11:17:52;6.90;;;3.25;;
43118;SDS011;28729;49.838;8.650;2022-07-19T11:21:55;10.90;;;3.28;;
43118;SDS011;28729;49.838;8.650;2022-07-19T11:26:36;6.00;;;3.20;;
43118;SDS011;28729;49.838;8.650;2022-07-19T11:30:36;7.60;;;2.80;;
43118;SDS011;28729;49.838;8.650;2022-07-19T11:34:38;4.30;;;2.88;;
43118;SDS011;28729;49.838;8.650;2022-07-19T11:38:41;5.43;;;2.90;;
43118;SDS011;28729;49.838;8.650;2022-07-19T11:42:48;3.42;;;3.13;;
43118;SDS011;28729;49.838;8.650;2022-07-19T11:47:10;4.35;;;2.90;;
43118;SDS011;28729;49.838;8.650;2022-07-19T11:51:12;6.07;;;2.90;;
43118;SDS011;28729;49.838;8.650;2022-07-19T11:55:14;9.77;;;3.28;;
43118;SDS011;28729;49.838;8.650;2022-07-19T11:59:17;6.07;;;3.50;;
43118;SDS011;28729;49.838;8.650;2022-07-19T12:03:20;7.72;;;3.00;;
43118;SDS011;28729;49.838;8.650;2022-07-19T12:07:22;5.38;;;2.85;;
43118;SDS011;28729;49.838;8.650;2022-07-19T12:11:24;6.80;;;3.30;;
43118;SDS011;28729;49.838;8.650;2022-07-19T12:15:42;8.20;;;3.08;;
43118;SDS011;28729;49.838;8.650;2022-07-19T12:19:45;6.13;;;3.17;;
43118;SDS011;28729;49.838;8.650;2022-07-19T12:28:10;9.37;;;3.20;;
43118;SDS011;28729;49.838;8.650;2022-07-19T12:32:13;4.28;;;3.03;;
43118;SDS011;28729;49.838;8.650;2022-07-19T12:36:32;7.80;;;3.40;;
43118;SDS011;28729;49.838;8.650;2022-07-19T12:40:34;6.68;;;3.42;;
43118;SDS011;28729;49.838;8.650;2022-07-19T12:44:37;5.88;;;3.15;;
43118;SDS011;28729;49.838;8.650;2022-07-19T12:48:39;3.78;;;2.60;;
43118;SDS011;28729;49.838;8.650;2022-07-19T12:52:40;6.30;;;2.90;;
43118;SDS011;28729;49.838;8.650;2022-07-19T12:56:42;4.13;;;2.47;;
43118;SDS011;28729;49.838;8.650;2022-07-19T13:00:43;6.40;;;2.90;;
43118;SDS011;28729;49.838;8.650;2022-07-19T13:04:46;8.55;;;3.45;;
43118;SDS011;28729;49.838;8.650;2022-07-19T13:08:48;6.85;;;2.70;;
43118;SDS011;28729;49.838;8.650;2022-07-19T13:12:50;9.98;;;2.97;;
43118;SDS011;28729;49.838;8.650;2022-07-19T13:16:52;4.15;;;2.92;;
43118;SDS011;28729;49.838;8.650;2022-07-19T13:20:54;4.18;;;3.05;;
43118;SDS011;28729;49.838;8.650;2022-07-19T13:24:56;5.80;;;3.20;;
43118;SDS011;28729;49.838;8.650;2022-07-19T13:29:18;5.30;;;2.58;;
43118;SDS011;28729;49.838;8.650;2022-07-19T13:33:20;5.65;;;2.90;;
43118;SDS011;28729;49.838;8.650;2022-07-19T13:37:21;6.20;;;3.22;;
43118;SDS011;28729;49.838;8.650;2022-07-19T13:41:23;4.97;;;2.80;;
43118;SDS011;28729;49.838;8.650;2022-07-19T13:45:25;5.03;;;3.13;;
43118;SDS011;28729;49.838;8.650;2022-07-19T13:49:27;5.63;;;2.90;;
43118;SDS011;28729;49.838;8.650;2022-07-19T13:53:29;6.97;;;2.90;;
43118;SDS011;28729;49.838;8.650;2022-07-19T13:57:30;5.30;;;2.45;;
43118;SDS011;28729;49.838;8.650;2022-07-19T14:01:32;4.18;;;2.58;;
43118;SDS011;28729;49.838;8.650;2022-07-19T14:05:47;6.05;;;3.13;;
43118;SDS011;28729;49.838;8.650;2022-07-19T14:09:49;10.32;;;2.83;;
43118;SDS011;28729;49.838;8.650;2022-07-19T14:13:50;8.68;;;3.38;;
43118;SDS011;28729;49.838;8.650;2022-07-19T14:17:53;5.30;;;2.58;;
43118;SDS011;28729;49.838;8.650;2022-07-19T14:21:56;3.65;;;2.58;;
43118;SDS011;28729;49.838;8.650;2022-07-19T14:25:58;6.63;;;2.97;;
43118;SDS011;28729;49.838;8.650;2022-07-19T14:30:02;4.78;;;2.97;;
43118;SDS011;28729;49.838;8.650;2022-07-19T14:34:04;3.25;;;2.50;;
43118;SDS011;28729;49.838;8.650;2022-07-19T14:38:26;5.50;;;2.78;;
43118;SDS011;28729;49.838;8.650;2022-07-19T14:42:28;5.15;;;2.90;;
43118;SDS011;28729;49.838;8.650;2022-07-19T14:46:32;3.78;;;2.55;;
43118;SDS011;28729;49.838;8.650;2022-07-19T14:50:34;4.90;;;2.83;;
43118;SDS011;28729;49.838;8.650;2022-07-19T14:54:38;7.85;;;2.50;;
43118;SDS011;28729;49.838;8.650;2022-07-19T14:58:40;9.75;;;2.80;;
43118;SDS011;28729;49.838;8.650;2022-07-19T15:02:45;6.80;;;2.40;;
43118;SDS011;28729;49.838;8.650;2022-07-19T15:06:47;3.83;;;2.63;;
43118;SDS011;28729;49.838;8.650;2022-07-19T15:10:49;5.30;;;2.65;;
43118;SDS011;28729;49.838;8.650;2022-07-19T15:14:50;5.20;;;3.42;;
43118;SDS011;28729;49.838;8.650;2022-07-19T15:18:52;4.72;;;3.10;;
43118;SDS011;28729;49.838;8.650;2022-07-19T15:22:54;5.43;;;3.00;;
43118;SDS011;28729;49.838;8.650;2022-07-19T15:26:56;5.03;;;3.05;;
43118;SDS011;28729;49.838;8.650;2022-07-19T15:30:58;3.85;;;2.75;;
43118;SDS011;28729;49.838;8.650;2022-07-19T15:34:59;6.78;;;2.65;;
43118;SDS011;28729;49.838;8.650;2022-07-19T15:39:02;9.43;;;3.45;;
43118;SDS011;28729;49.838;8.650;2022-07-19T15:43:05;6.22;;;2.70;;
43118;SDS011;28729;49.838;8.650;2022-07-19T15:47:06;4.25;;;2.90;;
43118;SDS011;28729;49.838;8.650;2022-07-19T15:51:09;5.22;;;2.90;;
43118;SDS011;28729;49.838;8.650;2022-07-19T15:55:12;6.70;;;3.20;;
43118;SDS011;28729;49.838;8.650;2022-07-19T15:59:17;5.95;;;3.65;;
43118;SDS011;28729;49.838;8.650;2022-07-19T16:03:19;6.90;;;3.50;;
43118;SDS011;28729;49.838;8.650;2022-07-19T16:07:21;4.50;;;3.45;;
43118;SDS011;28729;49.838;8.650;2022-07-19T16:11:23;3.90;;;3.20;;
43118;SDS011;28729;49.838;8.650;2022-07-19T16:15:24;5.18;;;3.60;;
43118;SDS011;28729;49.838;8.650;2022-07-19T16:19:27;5.60;;;3.80;;
43118;SDS011;28729;49.838;8.650;2022-07-19T16:23:28;9.63;;;4.28;;
43118;SDS011;28729;49.838;8.650;2022-07-19T16:27:30;6.55;;;3.80;;
43118;SDS011;28729;49.838;8.650;2022-07-19T16:31:32;5.38;;;3.35;;
43118;SDS011;28729;49.838;8.650;2022-07-19T16:35:35;7.60;;;3.42;;
43118;SDS011;28729;49.838;8.650;2022-07-19T16:39:38;5.30;;;3.67;;
43118;SDS011;28729;49.838;8.650;2022-07-19T16:43:40;6.60;;;3.60;;
43118;SDS011;28729;49.838;8.650;2022-07-19T16:47:42;6.03;;;3.20;;
43118;SDS011;28729;49.838;8.650;2022-07-19T16:51:44;11.10;;;4.38;;
43118;SDS011;28729;49.838;8.650;2022-07-19T16:55:52;5.95;;;4.07;;
43118;SDS011;28729;49.838;8.650;2022-07-19T16:59:53;5.20;;;3.60;;
43118;SDS011;28729;49.838;8.650;2022-07-19T17:03:55;5.25;;;3.38;;
43118;SDS011;28729;49.838;8.650;2022-07-19T17:07:57;7.20;;;3.60;;
43118;SDS011;28729;49.838;8.650;2022-07-19T17:11:59;5.28;;;3.15;;
43118;SDS011;28729;49.838;8.650;2022-07-19T17:16:04;10.20;;;3.85;;
43118;SDS011;28729;49.838;8.650;2022-07-19T17:20:06;8.60;;;3.40;;
43118;SDS011;28729;49.838;8.650;2022-07-19T17:24:08;6.97;;;2.97;;
43118;SDS011;28729;49.838;8.650;2022-07-19T17:28:10;4.55;;;3.20;;
43118;SDS011;28729;49.838;8.650;2022-07-19T17:32:12;5.60;;;3.13;;
43118;SDS011;28729;49.838;8.650;2022-07-19T17:36:15;6.70;;;3.28;;
43118;SDS011;28729;49.838;8.650;2022-07-19T17:40:17;5.90;;;3.38;;
43118;SDS011;28729;49.838;8.650;2022-07-19T17:44:19;4.22;;;3.30;;
43118;SDS011;28729;49.838;8.650;2022-07-19T17:48:21;6.97;;;3.67;;
43118;SDS011;28729;49.838;8.650;2022-07-19T17:52:23;7.53;;;3.20;;
43118;SDS011;28729;49.838;8.650;2022-07-19T17:56:24;8.90;;;3.65;;
43118;SDS011;28729;49.838;8.650;2022-07-19T18:00:26;5.00;;;2.92;;
43118;SDS011;28729;49.838;8.650;2022-07-19T18:04:29;8.93;;;3.63;;
43118;SDS011;28729;49.838;8.650;2022-07-19T18:08:32;5.78;;;3.10;;
43118;SDS011;28729;49.838;8.650;2022-07-19T18:12:34;7.68;;;3.10;;
43118;SDS011;28729;49.838;8.650;2022-07-19T18:16:35;6.65;;;3.13;;
43118;SDS011;28729;49.838;8.650;2022-07-19T18:24:59;8.43;;;2.85;;
43118;SDS011;28729;49.838;8.650;2022-07-19T18:33:02;7.20;;;2.88;;
43118;SDS011;28729;49.838;8.650;2022-07-19T18:37:04;5.80;;;2.90;;
43118;SDS011;28729;49.838;8.650;2022-07-19T18:45:07;12.70;;;2.75;;
43118;SDS011;28729;49.838;8.650;2022-07-19T18:49:09;5.75;;;3.25;;
43118;SDS011;28729;49.838;8.650;2022-07-19T18:53:11;7.43;;;2.88;;
43118;SDS011;28729;49.838;8.650;2022-07-19T18:57:13;8.00;;;2.78;;
43118;SDS011;28729;49.838;8.650;2022-07-19T19:01:15;7.25;;;2.83;;
43118;SDS011;28729;49.838;8.650;2022-07-19T19:05:17;5.40;;;2.83;;
43118;SDS011;28729;49.838;8.650;2022-07-19T19:09:19;7.15;;;3.00;;
43118;SDS011;28729;49.838;8.650;2022-07-19T19:13:20;5.70;;;2.85;;
43118;SDS011;28729;49.838;8.650;2022-07-19T19:17:22;5.07;;;2.50;;
43118;SDS011;28729;49.838;8.650;2022-07-19T19:21:24;6.15;;;3.05;;
43118;SDS011;28729;49.838;8.650;2022-07-19T19:25:26;5.57;;;2.85;;
43118;SDS011;28729;49.838;8.650;2022-07-19T19:29:28;7.30;;;2.47;;
43118;SDS011;28729;49.838;8.650;2022-07-19T19:33:32;5.22;;;2.70;;
43118;SDS011;28729;49.838;8.650;2022-07-19T19:37:33;7.05;;;2.92;;
43118;SDS011;28729;49.838;8.650;2022-07-19T19:41:35;9.77;;;3.00;;
43118;SDS011;28729;49.838;8.650;2022-07-19T19:45:38;4.78;;;2.97;;
43118;SDS011;28729;49.838;8.650;2022-07-19T19:49:40;5.90;;;2.55;;
43118;SDS011;28729;49.838;8.650;2022-07-19T19:53:42;8.77;;;2.42;;
43118;SDS011;28729;49.838;8.650;2022-07-19T19:57:44;7.07;;;2.63;;
43118;SDS011;28729;49.838;8.650;2022-07-19T20:01:45;6.30;;;3.08;;
43118;SDS011;28729;49.838;8.650;2022-07-19T20:05:47;5.57;;;2.50;;
43118;SDS011;28729;49.838;8.650;2022-07-19T20:09:49;4.55;;;2.35;;
43118;SDS011;28729;49.838;8.650;2022-07-19T20:13:50;5.60;;;2.60;;
43118;SDS011;28729;49.838;8.650;2022-07-19T20:17:52;5.85;;;2.72;;
43118;SDS011;28729;49.838;8.650;2022-07-19T20:21:56;5.85;;;3.00;;
43118;SDS011;28729;49.838;8.650;2022-07-19T20:25:57;3.25;;;2.38;;
43118;SDS011;28729;49.838;8.650;2022-07-19T20:29:59;6.97;;;2.47;;
43118;SDS011;28729;49.838;8.650;2022-07-19T20:34:00;8.20;;;2.33;;
43118;SDS011;28729;49.838;8.650;2022-07-19T20:38:02;4.50;;;2.65;;
43118;SDS011;28729;49.838;8.650;2022-07-19T20:42:07;6.03;;;2.83;;
43118;SDS011;28729;49.838;8.650;2022-07-19T20:46:09;6.18;;;2.53;;
43118;SDS011;28729;49.838;8.650;2022-07-19T20:50:11;9.70;;;2.70;;
43118;SDS011;28729;49.838;8.650;2022-07-19T20:54:13;4.35;;;2.47;;
43118;SDS011;28729;49.838;8.650;2022-07-19T20:58:14;4.23;;;2.83;;
43118;SDS011;28729;49.838;8.650;2022-07-19T21:02:16;4.82;;;2.40;;
43118;SDS011;28729;49.838;8.650;2022-07-19T21:06:18;8.02;;;2.67;;
43118;SDS011;28729;49.838;8.650;2022-07-19T21:10:20;6.43;;;3.03;;
43118;SDS011;28729;49.838;8.650;2022-07-19T21:14:22;6.60;;;2.35;;
43118;SDS011;28729;49.838;8.650;2022-07-19T21:18:24;7.20;;;2.30;;
43118;SDS011;28729;49.838;8.650;2022-07-19T21:22:26;8.23;;;2.80;;
43118;SDS011;28729;49.838;8.650;2022-07-19T21:26:31;7.22;;;2.30;;
43118;SDS011;28729;49.838;8.650;2022-07-19T21:30:32;7.15;;;2.60;;
43118;SDS011;28729;49.838;8.650;2022-07-19T21:34:34;5.43;;;2.53;;
43118;SDS011;28729;49.838;8.650;2022-07-19T21:38:36;4.23;;;2.80;;
43118;SDS011;28729;49.838;8.650;2022-07-19T21:42:38;7.32;;;2.90;;
43118;SDS011;28729;49.838;8.650;2022-07-19T21:46:39;7.60;;;3.10;;
43118;SDS011;28729;49.838;8.650;2022-07-19T21:50:41;5.78;;;2.95;;
43118;SDS011;28729;49.838;8.650;2022-07-19T21:54:43;5.43;;;2.90;;
43118;SDS011;28729;49.838;8.650;2022-07-19T21:58:52;4.78;;;2.20;;
43118;SDS011;28729;49.838;8.650;2022-07-19T22:02:54;5.20;;;2.30;;
43118;SDS011;28729;49.838;8.650;2022-07-19T22:06:56;7.87;;;2.30;;
43118;SDS011;28729;49.838;8.650;2022-07-19T22:10:57;6.30;;;2.53;;
43118;SDS011;28729;49.838;8.650;2022-07-19T22:14:59;4.45;;;2.65;;
43118;SDS011;28729;49.838;8.650;2022-07-19T22:23:04;7.00;;;2.55;;
43118;SDS011;28729;49.838;8.650;2022-07-19T22:27:06;9.75;;;3.47;;
43118;SDS011;28729;49.838;8.650;2022-07-19T22:31:08;7.37;;;2.60;;
43118;SDS011;28729;49.838;8.650;2022-07-19T22:39:12;6.87;;;2.33;;
43118;SDS011;28729;49.838;8.650;2022-07-19T22:43:14;5.67;;;2.70;;
43118;SDS011;28729;49.838;8.650;2022-07-19T22:47:16;7.47;;;2.83;;
43118;SDS011;28729;49.838;8.650;2022-07-19T22:51:17;4.17;;;2.40;;
43118;SDS011;28729;49.838;8.650;2022-07-19T22:55:22;7.25;;;2.63;;
43118;SDS011;28729;49.838;8.650;2022-07-19T22:59:23;8.80;;;2.37;;
43118;SDS011;28729;49.838;8.650;2022-07-19T23:03:25;8.13;;;2.40;;
43118;SDS011;28729;49.838;8.650;2022-07-19T23:07:30;6.00;;;2.42;;
43118;SDS011;28729;49.838;8.650;2022-07-19T23:11:32;8.60;;;2.00;;
43118;SDS011;28729;49.838;8.650;2022-07-19T23:15:34;3.85;;;2.33;;
43118;SDS011;28729;49.838;8.650;2022-07-19T23:19:35;4.43;;;2.60;;
43118;SDS011;28729;49.838;8.650;2022-07-19T23:23:37;4.43;;;2.10;;
43118;SDS011;28729;49.838;8.650;2022-07-19T23:27:39;7.70;;;2.80;;
43118;SDS011;28729;49.838;8.650;2022-07-19T23:31:40;5.63;;;2.77;;
43118;SDS011;28729;49.838;8.650;2022-07-19T23:35:42;5.80;;;2.77;;
43118;SDS011;28729;49.838;8.650;2022-07-19T23:39:44;6.60;;;2.53;;
43118;SDS011;28729;49.838;8.650;2022-07-19T23:43:45;3.83;;;2.47;;
43118;SDS011;28729;49.838;8.650;2022-07-19T23:47:47;4.70;;;2.88;;
43118;SDS011;28729;49.838;8.650;2022-07-19T23:51:49;5.90;;;2.57;;
43118;SDS011;28729;49.838;8.650;2022-07-19T23:55:51;5.72;;;2.95;;
43118;SDS011;28729;49.838;8.650;2022-07-19T23:59:52;4.00;;;2.87;;
